createdAt,value
2018-03-24T00:00:23.177Z,986.9
2018-03-24T00:01:32.987Z,986.86
2018-03-24T00:02:42.547Z,986.89
2018-03-24T00:03:52.088Z,986.83
2018-03-24T00:05:02.190Z,986.85
2018-03-24T00:06:11.994Z,986.8
2018-03-24T00:07:22.108Z,986.82
2018-03-24T00:08:32.168Z,986.81
2018-03-24T00:09:42.237Z,986.79
2018-03-24T00:10:52.375Z,986.82
2018-03-24T00:12:02.432Z,986.83
2018-03-24T00:13:12.244Z,986.87
2018-03-24T00:14:22.052Z,986.83
2018-03-24T00:15:31.857Z,986.85
2018-03-24T00:16:41.383Z,986.85
2018-03-24T00:17:51.192Z,986.87
2018-03-24T00:19:01.270Z,986.85
2018-03-24T00:20:11.082Z,986.88
2018-03-24T00:21:20.873Z,986.86
2018-03-24T00:22:30.672Z,986.9
2018-03-24T00:23:40.204Z,986.86
2018-03-24T00:24:50.266Z,986.85
2018-03-24T00:25:59.532Z,986.88
2018-03-24T00:27:09.330Z,986.88
2018-03-24T00:28:19.392Z,986.87
2018-03-24T00:29:29.469Z,986.91
2018-03-24T00:30:39.544Z,986.9
2018-03-24T00:31:49.083Z,986.92
2018-03-24T00:32:59.158Z,986.89
2018-03-24T00:34:08.697Z,986.89
2018-03-24T00:35:18.502Z,986.91
2018-03-24T00:36:28.578Z,986.94
2018-03-24T00:37:38.379Z,986.92
2018-03-24T00:38:48.423Z,986.9
2018-03-24T00:39:58.488Z,986.92
2018-03-24T00:41:08.573Z,986.89
2018-03-24T00:42:18.632Z,986.89
2018-03-24T00:43:28.435Z,986.91
2018-03-24T00:44:38.515Z,986.96
2018-03-24T00:45:48.579Z,986.92
2018-03-24T00:46:58.650Z,986.93
2018-03-24T00:48:08.447Z,986.94
2018-03-24T00:49:17.989Z,986.92
2018-03-24T00:50:28.051Z,986.92
2018-03-24T00:51:37.640Z,986.92
2018-03-24T00:52:47.442Z,986.88
2018-03-24T00:53:56.721Z,986.87
2018-03-24T00:55:06.804Z,986.83
2018-03-24T00:56:16.903Z,986.84
2018-03-24T00:57:26.720Z,986.87
2018-03-24T00:58:36.557Z,986.88
2018-03-24T00:59:46.098Z,986.84
2018-03-24T01:00:56.162Z,986.89
2018-03-24T01:02:06.245Z,986.87
2018-03-24T01:03:16.349Z,986.85
2018-03-24T01:04:26.147Z,986.83
2018-03-24T01:05:35.952Z,986.86
2018-03-24T01:06:45.486Z,986.85
2018-03-24T01:07:55.355Z,986.82
2018-03-24T01:09:05.418Z,986.81
2018-03-24T01:10:15.479Z,986.83
2018-03-24T01:11:25.560Z,986.82
2018-03-24T01:12:35.362Z,986.82
2018-03-24T01:13:45.429Z,986.8
2018-03-24T01:14:55.286Z,986.84
2018-03-24T01:16:05.079Z,986.81
2018-03-24T01:17:14.613Z,986.86
2018-03-24T01:18:24.431Z,986.87
2018-03-24T01:19:34.500Z,986.86
2018-03-24T01:20:44.558Z,986.82
2018-03-24T01:21:54.631Z,986.82
2018-03-24T01:23:03.916Z,986.82
2018-03-24T01:24:13.980Z,986.84
2018-03-24T01:25:23.793Z,986.82
2018-03-24T01:26:33.596Z,986.84
2018-03-24T01:27:43.394Z,986.85
2018-03-24T01:28:52.937Z,986.84
2018-03-24T01:30:02.729Z,986.81
2018-03-24T01:31:12.507Z,986.87
2018-03-24T01:32:22.574Z,986.84
2018-03-24T01:33:32.653Z,986.85
2018-03-24T01:34:42.193Z,986.84
2018-03-24T01:35:52.260Z,986.83
2018-03-24T01:37:02.322Z,986.83
2018-03-24T01:38:12.390Z,986.81
2018-03-24T01:39:22.440Z,986.86
2018-03-24T01:40:32.005Z,986.83
2018-03-24T01:41:41.782Z,986.83
2018-03-24T01:42:51.592Z,986.82
2018-03-24T01:44:01.140Z,986.86
2018-03-24T01:45:10.936Z,986.83
2018-03-24T01:46:21.015Z,986.86
2018-03-24T01:47:31.103Z,986.8
2018-03-24T01:48:41.174Z,986.81
2018-03-24T01:49:50.983Z,986.77
2018-03-24T01:51:00.536Z,986.77
2018-03-24T01:52:10.350Z,986.78
2018-03-24T01:53:20.143Z,986.79
2018-03-24T01:54:29.937Z,986.77
2018-03-24T01:55:40.004Z,986.78
2018-03-24T01:56:50.062Z,986.73
2018-03-24T01:57:59.865Z,986.73
2018-03-24T01:59:09.939Z,986.71
2018-03-24T02:00:19.215Z,986.72
2018-03-24T02:01:29.023Z,986.79
2018-03-24T02:02:39.082Z,986.76
2018-03-24T02:03:48.617Z,986.76
2018-03-24T02:04:58.419Z,986.77
2018-03-24T02:06:08.217Z,986.77
2018-03-24T02:07:18.281Z,986.76
2018-03-24T02:08:28.318Z,986.77
2018-03-24T02:09:38.119Z,986.74
2018-03-24T02:10:47.656Z,986.77
2018-03-24T02:11:57.727Z,986.72
2018-03-24T02:13:07.789Z,986.78
2018-03-24T02:14:17.849Z,986.75
2018-03-24T02:15:27.926Z,986.71
2018-03-24T02:16:37.711Z,986.71
2018-03-24T02:17:47.235Z,986.74
2018-03-24T02:18:56.760Z,986.74
2018-03-24T02:20:06.550Z,986.74
2018-03-24T02:21:16.601Z,986.71
2018-03-24T02:22:26.660Z,986.73
2018-03-24T02:23:36.721Z,986.7
2018-03-24T02:24:46.819Z,986.71
2018-03-24T02:25:56.878Z,986.69
2018-03-24T02:27:06.678Z,986.68
2018-03-24T02:28:16.746Z,986.67
2018-03-24T02:29:26.809Z,986.7
2018-03-24T02:30:36.660Z,986.7
2018-03-24T02:31:46.736Z,986.69
2018-03-24T02:32:56.566Z,986.72
2018-03-24T02:34:06.687Z,986.72
2018-03-24T02:35:16.761Z,986.78
2018-03-24T02:36:26.827Z,986.73
2018-03-24T02:37:36.900Z,986.73
2018-03-24T02:38:46.500Z,986.71
2018-03-24T02:39:56.322Z,986.73
2018-03-24T02:41:06.392Z,986.69
2018-03-24T02:42:16.534Z,986.72
2018-03-24T02:43:26.616Z,986.73
2018-03-24T02:44:36.689Z,986.7
2018-03-24T02:45:46.768Z,986.72
2018-03-24T02:46:56.565Z,986.72
2018-03-24T02:48:06.393Z,986.71
2018-03-24T02:49:16.465Z,986.75
2018-03-24T02:50:26.545Z,986.75
2018-03-24T02:51:36.606Z,986.74
2018-03-24T02:52:46.405Z,986.71
2018-03-24T02:53:56.005Z,986.71
2018-03-24T02:55:05.795Z,986.69
2018-03-24T02:56:15.590Z,986.71
2018-03-24T02:57:25.407Z,986.72
2018-03-24T02:58:35.233Z,986.73
2018-03-24T02:59:45.355Z,986.69
2018-03-24T03:00:55.461Z,986.65
2018-03-24T03:02:05.008Z,986.66
2018-03-24T03:03:15.099Z,986.64
2018-03-24T03:04:25.150Z,986.65
2018-03-24T03:05:35.223Z,986.66
2018-03-24T03:06:45.340Z,986.7
2018-03-24T03:38:34.134Z,986.57
2018-03-24T03:39:43.910Z,986.55
2018-03-24T03:40:53.701Z,986.53
2018-03-24T03:42:03.752Z,986.56
2018-03-24T03:43:13.802Z,986.56
2018-03-24T03:44:23.622Z,986.54
2018-03-24T03:45:33.683Z,986.53
2018-03-24T03:46:43.480Z,986.54
2018-03-24T03:47:53.541Z,986.55
2018-03-24T03:49:03.683Z,986.52
2018-03-24T03:50:13.544Z,986.51
2018-03-24T03:51:23.347Z,986.54
2018-03-24T03:52:33.438Z,986.52
2018-03-24T03:53:43.242Z,986.49
2018-03-24T03:54:53.293Z,986.49
2018-03-24T03:56:03.100Z,986.47
2018-03-24T03:57:12.963Z,986.48
2018-03-24T03:58:23.022Z,986.49
2018-03-24T03:59:33.055Z,986.45
2018-03-24T04:00:42.600Z,986.5
2018-03-24T04:01:52.420Z,986.51
2018-03-24T04:03:02.232Z,986.55
2018-03-24T04:04:12.308Z,986.49
2018-03-24T04:05:22.115Z,986.51
2018-03-24T04:06:32.185Z,986.52
2018-03-24T04:07:42.272Z,986.51
2018-03-24T04:08:52.357Z,986.54
2018-03-24T04:10:01.890Z,986.53
2018-03-24T04:11:11.438Z,986.57
2018-03-24T04:12:21.233Z,986.54
2018-03-24T04:13:31.075Z,986.57
2018-03-24T04:14:40.879Z,986.52
2018-03-24T04:15:50.940Z,986.59
2018-03-24T04:17:00.741Z,986.55
2018-03-24T04:18:10.803Z,986.55
2018-03-24T04:19:20.639Z,986.59
2018-03-24T04:20:30.551Z,986.54
2018-03-24T04:21:40.358Z,986.57
2018-03-24T04:22:50.147Z,986.56
2018-03-24T04:24:00.230Z,986.56
2018-03-24T04:25:09.774Z,986.55
2018-03-24T04:26:19.581Z,986.56
2018-03-24T04:27:29.459Z,986.52
2018-03-24T04:28:39.519Z,986.56
2018-03-24T04:29:49.568Z,986.55
2018-03-24T04:30:59.647Z,986.57
2018-03-24T04:32:09.440Z,986.55
2018-03-24T04:33:19.512Z,986.56
2018-03-24T04:34:29.580Z,986.58
2018-03-24T04:35:39.668Z,986.56
2018-03-24T04:36:49.727Z,986.55
2018-03-24T04:37:59.795Z,986.54
2018-03-24T04:39:09.851Z,986.54
2018-03-24T04:40:19.934Z,986.52
2018-03-24T04:41:30.000Z,986.56
2018-03-24T04:42:40.065Z,986.54
2018-03-24T04:43:50.133Z,986.59
2018-03-24T04:45:00.198Z,986.55
2018-03-24T04:46:09.999Z,986.58
2018-03-24T04:47:20.063Z,986.55
2018-03-24T04:48:30.173Z,986.6
2018-03-24T04:49:40.230Z,986.62
2018-03-24T04:50:50.281Z,986.63
2018-03-24T04:52:00.341Z,986.63
2018-03-24T04:53:10.397Z,986.65
2018-03-24T04:54:20.517Z,986.65
2018-03-24T04:55:30.576Z,986.65
2018-03-24T04:56:40.387Z,986.65
2018-03-24T04:57:50.442Z,986.65
2018-03-24T04:59:00.499Z,986.63
2018-03-24T05:00:10.615Z,986.63
2018-03-24T05:01:20.681Z,986.64
2018-03-24T05:02:30.565Z,986.62
2018-03-24T05:03:40.357Z,986.61
2018-03-24T05:04:50.418Z,986.62
2018-03-24T05:06:00.536Z,986.63
2018-03-24T05:07:10.599Z,986.69
2018-03-24T05:08:20.382Z,986.67
2018-03-24T05:09:30.444Z,986.7
2018-03-24T05:10:40.316Z,986.7
2018-03-24T05:11:50.445Z,986.7
2018-03-24T05:13:00.518Z,986.71
2018-03-24T05:14:10.322Z,986.72
2018-03-24T05:15:20.378Z,986.74
2018-03-24T05:16:30.456Z,986.77
2018-03-24T05:17:40.507Z,986.77
2018-03-24T05:18:50.623Z,986.81
2018-03-24T05:20:00.686Z,986.83
2018-03-24T05:21:10.767Z,986.85
2018-03-24T05:22:20.305Z,986.87
2018-03-24T05:23:30.443Z,986.88
2018-03-24T05:24:40.008Z,986.91
2018-03-24T05:25:49.800Z,986.87
2018-03-24T05:26:59.852Z,986.9
2018-03-24T05:28:09.910Z,986.9
2018-03-24T05:29:20.094Z,986.9
2018-03-24T05:30:29.906Z,986.91
2018-03-24T05:31:39.716Z,986.9
2018-03-24T05:32:49.513Z,986.87
2018-03-24T05:33:59.564Z,986.84
2018-03-24T05:35:09.693Z,986.87
2018-03-24T05:36:19.492Z,986.88
2018-03-24T05:37:29.572Z,986.88
2018-03-24T05:38:39.649Z,986.89
2018-03-24T05:39:49.715Z,986.91
2018-03-24T05:40:59.514Z,986.97
2018-03-24T05:42:09.579Z,987
2018-03-24T05:43:19.625Z,986.97
2018-03-24T05:44:29.684Z,986.98
2018-03-24T05:45:39.755Z,986.99
2018-03-24T05:46:49.855Z,986.97
2018-03-24T05:47:59.908Z,986.96
2018-03-24T05:49:09.971Z,986.95
2018-03-24T05:50:20.048Z,986.96
2018-03-24T05:51:30.102Z,986.95
2018-03-24T05:52:39.955Z,986.96
2018-03-24T05:53:50.031Z,986.95
2018-03-24T05:55:00.120Z,986.97
2018-03-24T05:56:09.935Z,987
2018-03-24T05:57:19.991Z,987.04
2018-03-24T05:58:30.096Z,987.04
2018-03-24T05:59:40.171Z,987.03
2018-03-24T06:00:50.279Z,987.04
2018-03-24T06:02:00.331Z,987.05
2018-03-24T06:03:09.886Z,987.02
2018-03-24T06:04:20.016Z,987.05
2018-03-24T06:05:29.818Z,987.08
2018-03-24T06:06:39.636Z,987.07
2018-03-24T06:07:49.449Z,987.12
2018-03-24T06:08:59.254Z,987.14
2018-03-24T06:10:09.333Z,987.12
2018-03-24T06:11:19.400Z,987.15
2018-03-24T06:12:29.244Z,987.17
2018-03-24T06:13:39.052Z,987.16
2018-03-24T06:14:48.910Z,987.21
2018-03-24T06:15:58.990Z,987.2
2018-03-24T06:17:09.049Z,987.26
2018-03-24T06:18:19.113Z,987.22
2018-03-24T06:19:28.936Z,987.3
2018-03-24T06:20:39.007Z,987.22
2018-03-24T06:21:48.803Z,987.29
2018-03-24T06:22:58.856Z,987.32
2018-03-24T06:24:08.922Z,987.28
2018-03-24T06:25:19.078Z,987.36
2018-03-24T06:26:28.883Z,987.33
2018-03-24T06:27:38.985Z,987.35
2018-03-24T06:28:49.064Z,987.37
2018-03-24T06:29:59.121Z,987.35
2018-03-24T06:31:08.679Z,987.34
2018-03-24T06:32:18.740Z,987.33
2018-03-24T06:33:28.805Z,987.3
2018-03-24T06:34:38.862Z,987.33
2018-03-24T06:35:48.934Z,987.35
2018-03-24T06:36:59.009Z,987.34
2018-03-24T06:38:09.123Z,987.33
2018-03-24T06:39:19.251Z,987.35
2018-03-24T06:40:29.321Z,987.39
2018-03-24T06:41:39.128Z,987.38
2018-03-24T06:42:49.205Z,987.38
2018-03-24T06:43:59.263Z,987.4
2018-03-24T06:45:09.375Z,987.42
2018-03-24T06:46:19.455Z,987.42
2018-03-24T06:47:29.512Z,987.46
2018-03-24T06:48:39.332Z,987.46
2018-03-24T06:49:49.406Z,987.5
2018-03-24T06:50:59.475Z,987.48
2018-03-24T06:52:09.549Z,987.46
2018-03-24T06:53:19.611Z,987.5
2018-03-24T06:54:29.689Z,987.48
2018-03-24T06:55:39.790Z,987.49
2018-03-24T06:56:49.587Z,987.43
2018-03-24T06:57:59.129Z,987.46
2018-03-24T06:59:08.666Z,987.48
2018-03-24T07:00:18.742Z,987.47
2018-03-24T07:01:28.810Z,987.49
2018-03-24T07:02:38.647Z,987.49
2018-03-24T07:03:48.813Z,987.49
2018-03-24T07:04:58.889Z,987.49
2018-03-24T07:06:08.443Z,987.46
2018-03-24T07:07:18.242Z,987.43
2018-03-24T07:08:28.318Z,987.44
2018-03-24T07:09:38.118Z,987.43
2018-03-24T07:10:47.920Z,987.44
2018-03-24T07:11:58.004Z,987.46
2018-03-24T07:13:07.576Z,987.46
2018-03-24T07:14:17.647Z,987.48
2018-03-24T07:15:27.710Z,987.42
2018-03-24T07:16:37.807Z,987.45
2018-03-24T07:17:47.409Z,987.45
2018-03-24T07:18:57.480Z,987.43
2018-03-24T07:20:07.613Z,987.46
2018-03-24T07:21:17.681Z,987.49
2018-03-24T07:22:27.579Z,987.47
2018-03-24T07:23:37.658Z,987.48
2018-03-24T07:24:47.774Z,987.48
2018-03-24T07:25:57.897Z,987.52
2018-03-24T07:27:08.213Z,987.48
2018-03-24T07:28:18.337Z,987.5
2018-03-24T07:29:28.151Z,987.51
2018-03-24T07:30:37.698Z,987.51
2018-03-24T07:31:47.769Z,987.57
2018-03-24T07:32:57.610Z,987.55
2018-03-24T07:34:07.688Z,987.53
2018-03-24T07:35:17.802Z,987.56
2018-03-24T07:36:27.861Z,987.59
2018-03-24T07:37:37.714Z,987.6
2018-03-24T07:38:47.815Z,987.57
2018-03-24T07:39:57.353Z,987.54
2018-03-24T07:41:07.156Z,987.62
2018-03-24T07:42:17.239Z,987.61
2018-03-24T07:43:27.342Z,987.6
2018-03-24T07:44:37.420Z,987.58
2018-03-24T07:45:47.486Z,987.58
2018-03-24T07:46:57.273Z,987.54
2018-03-24T07:48:07.342Z,987.57
2018-03-24T07:49:17.152Z,987.56
2018-03-24T07:50:27.238Z,987.57
2018-03-24T07:51:37.314Z,987.56
2018-03-24T07:52:47.388Z,987.59
2018-03-24T07:53:57.457Z,987.56
2018-03-24T07:55:07.297Z,987.57
2018-03-24T07:56:17.360Z,987.61
2018-03-24T07:57:27.424Z,987.64
2018-03-24T07:58:37.487Z,987.6
2018-03-24T07:59:47.302Z,987.61
2018-03-24T08:00:57.130Z,987.59
2018-03-24T08:02:06.952Z,987.68
2018-03-24T08:03:17.036Z,987.67
2018-03-24T08:04:26.831Z,987.68
2018-03-24T08:05:36.910Z,987.68
2018-03-24T08:06:46.983Z,987.71
2018-03-24T08:07:57.055Z,987.69
2018-03-24T08:09:06.609Z,987.67
2018-03-24T08:10:16.704Z,987.68
2018-03-24T08:11:26.515Z,987.73
2018-03-24T08:12:36.213Z,987.67
2018-03-24T08:13:46.283Z,987.73
2018-03-24T08:14:56.334Z,987.72
2018-03-24T08:16:06.133Z,987.73
2018-03-24T08:17:16.204Z,987.68
2018-03-24T08:18:26.323Z,987.71
2018-03-24T08:19:36.410Z,987.75
2018-03-24T08:20:46.512Z,987.74
2018-03-24T08:21:56.632Z,987.76
2018-03-24T08:23:06.446Z,987.75
2018-03-24T08:24:16.239Z,987.73
2018-03-24T08:25:25.261Z,987.76
2018-03-24T08:26:34.816Z,987.74
2018-03-24T08:27:44.384Z,987.76
2018-03-24T08:28:54.437Z,987.72
2018-03-24T08:30:04.339Z,987.72
2018-03-24T08:31:13.894Z,987.77
2018-03-24T08:32:23.437Z,987.75
2018-03-24T08:33:33.493Z,987.75
2018-03-24T08:34:43.068Z,987.76
2018-03-24T08:35:52.620Z,987.77
2018-03-24T08:37:02.717Z,987.77
2018-03-24T08:38:12.518Z,987.78
2018-03-24T08:39:22.723Z,987.77
2018-03-24T08:40:32.784Z,987.78
2018-03-24T08:41:42.346Z,987.79
2018-03-24T08:42:52.444Z,987.82
2018-03-24T08:44:02.376Z,987.79
2018-03-24T08:45:12.454Z,987.82
2018-03-24T08:46:22.272Z,987.82
2018-03-24T08:47:32.068Z,987.87
2018-03-24T08:48:41.339Z,987.85
2018-03-24T08:49:51.167Z,987.85
2018-03-24T08:51:01.298Z,987.87
2018-03-24T08:52:11.369Z,987.85
2018-03-24T08:53:21.488Z,987.89
2018-03-24T08:54:31.034Z,987.91
2018-03-24T08:55:41.106Z,987.92
2018-03-24T08:56:51.167Z,987.91
2018-03-24T08:58:00.475Z,987.92
2018-03-24T08:59:10.286Z,987.97
2018-03-24T09:00:20.106Z,987.99
2018-03-24T09:01:29.904Z,988
2018-03-24T09:02:39.444Z,987.99
2018-03-24T09:03:48.993Z,988.07
2018-03-24T09:04:58.861Z,988
2018-03-24T09:06:08.685Z,988.07
2018-03-24T09:07:18.489Z,988.05
2018-03-24T09:08:28.556Z,988.03
2018-03-24T09:09:38.363Z,988.05
2018-03-24T09:10:47.951Z,988.01
2018-03-24T09:11:57.747Z,988.04
2018-03-24T09:13:07.561Z,987.98
2018-03-24T09:14:17.638Z,987.96
2018-03-24T09:15:27.725Z,988.01
2018-03-24T09:16:37.535Z,987.98
2018-03-24T09:17:47.664Z,987.97
2018-03-24T09:18:57.733Z,987.97
2018-03-24T09:20:07.278Z,987.97
2018-03-24T09:21:16.820Z,988.01
2018-03-24T09:22:26.660Z,988.05
2018-03-24T09:23:37.537Z,988
2018-03-24T09:24:47.999Z,988.02
2018-03-24T09:25:57.297Z,988.01
2018-03-24T09:27:07.115Z,988
2018-03-24T09:28:16.730Z,988
2018-03-24T09:29:26.533Z,988.02
2018-03-24T09:30:36.365Z,988
2018-03-24T09:31:46.164Z,987.98
2018-03-24T09:32:56.002Z,987.96
2018-03-24T09:34:05.542Z,988
2018-03-24T09:35:15.345Z,987.98
2018-03-24T09:36:25.181Z,988
2018-03-24T09:37:35.316Z,987.96
2018-03-24T09:38:45.389Z,987.97
2018-03-24T09:39:55.268Z,987.94
2018-03-24T09:41:05.396Z,987.91
2018-03-24T09:42:15.215Z,987.93
2018-03-24T09:43:24.244Z,987.94
2018-03-24T09:44:34.080Z,987.92
2018-03-24T09:45:43.921Z,987.93
2018-03-24T09:46:53.748Z,987.88
2018-03-24T09:48:03.703Z,987.96
2018-03-24T09:49:13.709Z,987.92
2018-03-24T09:50:24.040Z,987.9
2018-03-24T09:51:34.339Z,987.96
2018-03-24T09:52:44.233Z,987.91
2018-03-24T09:53:54.036Z,987.89
2018-03-24T09:55:10.166Z,987.88
2018-03-24T09:56:20.271Z,987.88
2018-03-24T09:57:30.107Z,987.85
2018-03-24T09:58:40.031Z,987.82
2018-03-24T09:59:50.178Z,987.82
2018-03-24T10:00:59.734Z,987.88
2018-03-24T10:02:09.810Z,987.85
2018-03-24T10:03:19.624Z,987.88
2018-03-24T10:04:28.914Z,987.84
2018-03-24T10:05:39.005Z,987.85
2018-03-24T10:06:49.102Z,987.83
2018-03-24T10:07:59.430Z,987.83
2018-03-24T10:09:09.244Z,987.8
2018-03-24T10:10:19.076Z,987.74
2018-03-24T10:11:29.154Z,987.74
2018-03-24T10:12:39.027Z,987.73
2018-03-24T10:13:49.095Z,987.7
2018-03-24T10:14:59.191Z,987.78
2018-03-24T10:16:08.719Z,987.78
2018-03-24T10:17:18.607Z,987.79
2018-03-24T10:18:28.162Z,987.81
2018-03-24T10:19:38.277Z,987.83
2018-03-24T10:20:47.830Z,987.85
2018-03-24T10:21:57.638Z,987.81
2018-03-24T10:23:07.732Z,987.77
2018-03-24T10:24:17.570Z,987.81
2018-03-24T10:25:27.395Z,987.8
2018-03-24T10:26:36.966Z,987.8
2018-03-24T10:27:46.774Z,987.81
2018-03-24T10:28:56.367Z,987.8
2018-03-24T10:30:06.201Z,987.78
2018-03-24T10:31:15.751Z,987.77
2018-03-24T10:32:25.820Z,987.73
2018-03-24T10:33:35.631Z,987.77
2018-03-24T10:34:45.712Z,987.74
2018-03-24T10:35:55.523Z,987.75
2018-03-24T10:37:05.334Z,987.79
2018-03-24T10:38:15.417Z,987.74
2018-03-24T10:39:25.502Z,987.79
2018-03-24T10:40:35.370Z,987.79
2018-03-24T10:41:45.464Z,987.78
2018-03-24T10:42:55.575Z,987.8
2018-03-24T10:44:05.413Z,987.8
2018-03-24T10:45:15.497Z,987.79
2018-03-24T10:46:25.614Z,987.73
2018-03-24T10:47:35.426Z,987.74
2018-03-24T10:48:45.529Z,987.67
2018-03-24T10:49:55.613Z,987.65
2018-03-24T10:51:05.694Z,987.69
2018-03-24T10:52:15.825Z,987.72
2018-03-24T10:53:26.083Z,987.69
2018-03-24T10:54:36.154Z,987.71
2018-03-24T10:55:45.970Z,987.73
2018-03-24T10:56:56.051Z,987.74
2018-03-24T10:58:06.171Z,987.77
2018-03-24T10:59:16.267Z,987.76
2018-03-24T11:00:26.100Z,987.7
2018-03-24T11:01:36.186Z,987.7
2018-03-24T11:02:45.746Z,987.7
2018-03-24T11:03:55.035Z,987.72
2018-03-24T11:05:04.863Z,987.7
2018-03-24T11:06:14.974Z,987.65
2018-03-24T11:07:24.769Z,987.65
2018-03-24T11:08:34.846Z,987.66
2018-03-24T11:09:44.679Z,987.66
2018-03-24T11:10:54.501Z,987.65
2018-03-24T11:12:04.373Z,987.64
2018-03-24T11:13:14.462Z,987.69
2018-03-24T11:14:24.285Z,987.65
2018-03-24T11:15:34.104Z,987.56
2018-03-24T11:16:43.648Z,987.6
2018-03-24T11:17:53.465Z,987.55
2018-03-24T11:19:03.547Z,987.57
2018-03-24T11:20:13.621Z,987.6
2018-03-24T11:21:23.749Z,987.59
2018-03-24T11:22:33.358Z,987.59
2018-03-24T11:23:42.916Z,987.61
2018-03-24T11:24:52.472Z,987.59
2018-03-24T11:26:02.568Z,987.55
2018-03-24T11:27:12.475Z,987.53
2018-03-24T11:28:22.547Z,987.61
2018-03-24T11:29:32.358Z,987.6
2018-03-24T11:30:41.896Z,987.59
2018-03-24T11:31:52.238Z,987.59
2018-03-24T11:33:02.390Z,987.56
2018-03-24T11:34:12.583Z,987.55
2018-03-24T11:35:22.171Z,987.59
2018-03-24T11:36:32.314Z,987.54
2018-03-24T11:37:41.865Z,987.54
2018-03-24T11:38:51.454Z,987.55
2018-03-24T11:40:01.590Z,987.49
2018-03-24T11:41:11.146Z,987.5
2018-03-24T11:42:20.692Z,987.48
2018-03-24T11:43:30.277Z,987.49
2018-03-24T11:44:40.113Z,987.44
2018-03-24T11:45:49.937Z,987.47
2018-03-24T11:46:59.493Z,987.49
2018-03-24T11:48:09.325Z,987.44
2018-03-24T11:49:19.425Z,987.47
2018-03-24T11:50:29.516Z,987.52
2018-03-24T11:51:39.607Z,987.44
2018-03-24T11:52:49.716Z,987.45
2018-03-24T11:53:59.802Z,987.45
2018-03-24T11:55:09.629Z,987.43
2018-03-24T11:56:19.756Z,987.41
2018-03-24T11:57:29.830Z,987.39
2018-03-24T11:58:39.894Z,987.43
2018-03-24T11:59:49.996Z,987.47
2018-03-24T12:01:00.088Z,987.46
2018-03-24T12:02:09.954Z,987.43
2018-03-24T12:03:20.037Z,987.42
2018-03-24T12:04:30.137Z,987.39
2018-03-24T12:05:40.272Z,987.39
2018-03-24T12:06:50.349Z,987.39
2018-03-24T12:08:00.207Z,987.39
2018-03-24T12:09:10.313Z,987.39
2018-03-24T12:10:20.413Z,987.42
2018-03-24T12:11:30.492Z,987.41
2018-03-24T12:12:40.301Z,987.39
2018-03-24T12:13:50.385Z,987.39
2018-03-24T12:15:00.215Z,987.37
2018-03-24T12:16:10.044Z,987.3
2018-03-24T12:17:19.872Z,987.34
2018-03-24T12:18:29.953Z,987.32
2018-03-24T12:19:39.583Z,987.35
2018-03-24T12:20:49.682Z,987.34
2018-03-24T12:21:59.504Z,987.35
2018-03-24T12:23:09.618Z,987.38
2018-03-24T12:24:19.468Z,987.38
2018-03-24T12:25:29.607Z,987.36
2018-03-24T12:26:39.689Z,987.33
2018-03-24T12:27:49.766Z,987.33
2018-03-24T12:28:59.307Z,987.32
2018-03-24T12:30:09.401Z,987.28
2018-03-24T12:31:18.723Z,987.26
2018-03-24T12:32:28.798Z,987.29
2018-03-24T12:33:38.344Z,987.29
2018-03-24T12:34:48.407Z,987.27
2018-03-24T12:35:58.236Z,987.35
2018-03-24T12:37:08.050Z,987.29
2018-03-24T12:38:17.860Z,987.31
2018-03-24T12:39:27.678Z,987.37
2018-03-24T12:40:37.226Z,987.35
2018-03-24T12:41:47.315Z,987.42
2018-03-24T12:42:57.193Z,987.39
2018-03-24T12:44:06.756Z,987.39
2018-03-24T12:45:16.843Z,987.46
2018-03-24T12:46:26.935Z,987.48
2018-03-24T12:47:37.027Z,987.47
2018-03-24T12:48:47.163Z,987.51
2018-03-24T12:49:57.234Z,987.46
2018-03-24T12:51:07.051Z,987.51
2018-03-24T12:52:17.129Z,987.47
2018-03-24T12:53:27.209Z,987.48
2018-03-24T12:54:37.307Z,987.49
2018-03-24T12:55:47.396Z,987.42
2018-03-24T12:56:57.481Z,987.49
2018-03-24T12:58:07.842Z,987.44
2018-03-24T12:59:17.677Z,987.48
2018-03-24T13:00:27.880Z,987.52
2018-03-24T13:01:38.027Z,987.5
2018-03-24T13:02:48.120Z,987.46
2018-03-24T13:03:57.678Z,987.45
2018-03-24T13:05:07.769Z,987.43
2018-03-24T13:06:17.907Z,987.43
2018-03-24T13:07:28.011Z,987.45
2018-03-24T13:08:38.081Z,987.41
2018-03-24T13:09:48.173Z,987.46
2018-03-24T13:10:58.252Z,987.46
2018-03-24T13:12:08.310Z,987.48
2018-03-24T13:13:18.126Z,987.5
2018-03-24T13:14:27.949Z,987.51
2018-03-24T13:15:38.019Z,987.47
2018-03-24T13:16:48.084Z,987.46
2018-03-24T13:17:58.179Z,987.49
2018-03-24T13:19:08.288Z,987.54
2018-03-24T13:20:18.385Z,987.46
2018-03-24T13:21:28.486Z,987.43
2018-03-24T13:22:38.549Z,987.47
2018-03-24T13:23:48.381Z,987.47
2018-03-24T13:24:58.193Z,987.4
2018-03-24T13:26:08.047Z,987.5
2018-03-24T13:27:18.128Z,987.47
2018-03-24T13:28:27.929Z,987.5
2018-03-24T13:29:38.073Z,987.49
2018-03-24T13:30:48.145Z,987.48
2018-03-24T13:31:57.688Z,987.46
2018-03-24T13:33:07.523Z,987.45
2018-03-24T13:34:17.356Z,987.52
2018-03-24T13:35:27.410Z,987.53
2018-03-24T13:36:37.202Z,987.58
2018-03-24T13:37:47.282Z,987.54
2018-03-24T13:38:57.105Z,987.47
2018-03-24T13:40:06.920Z,987.51
2018-03-24T13:41:16.990Z,987.5
2018-03-24T13:42:26.703Z,987.52
2018-03-24T13:43:36.800Z,987.53
2018-03-24T13:44:46.892Z,987.47
2018-03-24T13:45:56.958Z,987.43
2018-03-24T13:47:07.031Z,987.42
2018-03-24T13:48:17.101Z,987.46
2018-03-24T13:49:27.159Z,987.48
2018-03-24T13:50:37.000Z,987.5
2018-03-24T13:51:46.831Z,987.49
2018-03-24T13:52:56.944Z,987.49
2018-03-24T13:54:07.066Z,987.48
2018-03-24T13:55:17.144Z,987.5
2018-03-24T13:56:26.740Z,987.52
2018-03-24T13:57:36.816Z,987.47
2018-03-24T13:58:46.616Z,987.49
2018-03-24T13:59:56.161Z,987.52
2018-03-24T14:01:06.322Z,987.49
2018-03-24T14:02:16.400Z,987.47
2018-03-24T14:03:26.483Z,987.47
2018-03-24T14:04:36.605Z,987.5
2018-03-24T14:05:46.691Z,987.51
2018-03-24T14:06:56.508Z,987.5
2018-03-24T14:08:06.582Z,987.47
2018-03-24T14:09:16.689Z,987.55
2018-03-24T14:10:26.772Z,987.54
2018-03-24T14:11:36.576Z,987.55
2018-03-24T14:12:46.378Z,987.59
2018-03-24T14:13:56.460Z,987.52
2018-03-24T14:15:06.562Z,987.53
2018-03-24T14:16:16.666Z,987.53
2018-03-24T14:17:26.743Z,987.51
2018-03-24T14:18:36.815Z,987.51
2018-03-24T14:19:46.900Z,987.56
2018-03-24T14:20:56.971Z,987.57
2018-03-24T14:22:07.035Z,987.58
2018-03-24T14:23:17.135Z,987.56
2018-03-24T14:24:27.222Z,987.49
2018-03-24T14:25:37.280Z,987.54
2018-03-24T14:26:47.342Z,987.47
2018-03-24T14:27:57.425Z,987.52
2018-03-24T14:29:07.509Z,987.59
2018-03-24T14:30:17.322Z,987.56
2018-03-24T14:31:27.410Z,987.53
2018-03-24T14:32:37.224Z,987.52
2018-03-24T14:33:47.042Z,987.55
2018-03-24T14:34:57.115Z,987.55
2018-03-24T14:36:07.212Z,987.5
2018-03-24T14:37:17.027Z,987.51
2018-03-24T14:38:27.105Z,987.5
2018-03-24T14:39:37.186Z,987.51
2018-03-24T14:40:47.000Z,987.52
2018-03-24T14:41:56.809Z,987.52
2018-03-24T14:43:06.639Z,987.59
2018-03-24T14:44:16.479Z,987.54
2018-03-24T14:45:26.554Z,987.46
2018-03-24T14:46:36.661Z,987.51
2018-03-24T14:47:46.724Z,987.51
2018-03-24T14:48:56.553Z,987.5
2018-03-24T14:50:06.623Z,987.58
2018-03-24T14:51:16.758Z,987.63
2018-03-24T14:52:26.904Z,987.59
2018-03-24T14:53:36.753Z,987.56
2018-03-24T14:54:46.580Z,987.61
2018-03-24T14:55:56.419Z,987.56
2018-03-24T14:57:06.256Z,987.56
2018-03-24T14:58:16.329Z,987.58
2018-03-24T14:59:26.141Z,987.57
2018-03-24T15:00:36.237Z,987.59
2018-03-24T15:01:46.343Z,987.58
2018-03-24T15:02:56.467Z,987.66
2018-03-24T15:04:06.537Z,987.59
2018-03-24T15:05:16.618Z,987.56
2018-03-24T15:06:26.156Z,987.55